Rangeley, Maine
Current Conditions -  °F | °C
As of 4:12 PM on Tuesday 27 Jan 2015 (Local Time) from KBML Reporting Station
Light Snow Light Snow  
Wind Chill:   Ceiling: 1600
Heat Index: 10°   Visibility: 0.75mi
Dew Point:   Wind: 5mph
Humidity: 73%   Direction: 330°NNW
Pressure: 29.66"   Gusts: NA
Location:  44.97°N, 70.65°W
Report Text: KBML 272112Z AUTO 33004KT 3/4SM -SN VV016 M12/M16 A2966 RMK AO2 P0001 T11221161
Loading
Personal Weather Stations






























Interactive Weather Map New forecast layout! Learn more

10-Day Weather Forecast

Advertisements
Track Severe Weather on mobile